sensor_id;sensor_type;location;lat;lon;timestamp;temperature;humidity
42907;DHT22;28552;51.146;6.576;2023-03-23T00:00:43;12.40;99.90
42907;DHT22;28552;51.146;6.576;2023-03-23T00:03:44;12.40;99.90
42907;DHT22;28552;51.146;6.576;2023-03-23T00:06:45;12.40;99.90
42907;DHT22;28552;51.146;6.576;2023-03-23T00:09:45;12.40;99.90
42907;DHT22;28552;51.146;6.576;2023-03-23T00:12:47;12.40;99.90
42907;DHT22;28552;51.146;6.576;2023-03-23T00:15:49;12.40;99.90
42907;DHT22;28552;51.146;6.576;2023-03-23T00:18:52;12.40;99.90
42907;DHT22;28552;51.146;6.576;2023-03-23T00:21:52;12.40;99.90
42907;DHT22;28552;51.146;6.576;2023-03-23T00:24:53;12.40;99.90
42907;DHT22;28552;51.146;6.576;2023-03-23T00:27:54;12.50;99.90
42907;DHT22;28552;51.146;6.576;2023-03-23T00:30:56;12.40;99.90
42907;DHT22;28552;51.146;6.576;2023-03-23T00:33:57;12.50;99.90
42907;DHT22;28552;51.146;6.576;2023-03-23T00:36:58;12.50;99.90
42907;DHT22;28552;51.146;6.576;2023-03-23T00:39:59;12.50;99.90
42907;DHT22;28552;51.146;6.576;2023-03-23T00:43:01;12.50;99.90
42907;DHT22;28552;51.146;6.576;2023-03-23T00:46:03;12.50;99.90
42907;DHT22;28552;51.146;6.576;2023-03-23T00:49:08;12.60;99.90
42907;DHT22;28552;51.146;6.576;2023-03-23T00:52:09;12.60;99.90
42907;DHT22;28552;51.146;6.576;2023-03-23T00:55:12;12.50;99.90
42907;DHT22;28552;51.146;6.576;2023-03-23T00:58:13;12.50;99.90
42907;DHT22;28552;51.146;6.576;2023-03-23T01:01:13;12.50;99.90
42907;DHT22;28552;51.146;6.576;2023-03-23T01:04:15;12.60;99.90
42907;DHT22;28552;51.146;6.576;2023-03-23T01:07:15;12.50;99.90
42907;DHT22;28552;51.146;6.576;2023-03-23T01:10:18;12.50;99.90
42907;DHT22;28552;51.146;6.576;2023-03-23T01:13:18;12.50;99.90
42907;DHT22;28552;51.146;6.576;2023-03-23T01:16:19;12.40;99.90
42907;DHT22;28552;51.146;6.576;2023-03-23T01:19:19;12.40;99.90
42907;DHT22;28552;51.146;6.576;2023-03-23T01:22:20;12.40;99.90
42907;DHT22;28552;51.146;6.576;2023-03-23T01:25:20;12.40;99.90
42907;DHT22;28552;51.146;6.576;2023-03-23T01:28:21;12.40;99.90
42907;DHT22;28552;51.146;6.576;2023-03-23T01:31:23;12.30;99.90
42907;DHT22;28552;51.146;6.576;2023-03-23T01:34:23;12.10;99.90
42907;DHT22;28552;51.146;6.576;2023-03-23T01:37:24;11.70;99.90
42907;DHT22;28552;51.146;6.576;2023-03-23T01:40:26;11.60;99.90
42907;DHT22;28552;51.146;6.576;2023-03-23T01:43:27;11.40;99.90
42907;DHT22;28552;51.146;6.576;2023-03-23T01:46:28;11.20;99.90
42907;DHT22;28552;51.146;6.576;2023-03-23T01:49:31;11.10;99.90
42907;DHT22;28552;51.146;6.576;2023-03-23T01:52:33;11.10;99.90
42907;DHT22;28552;51.146;6.576;2023-03-23T01:55:34;11.00;99.90
42907;DHT22;28552;51.146;6.576;2023-03-23T01:58:37;11.00;99.90
42907;DHT22;28552;51.146;6.576;2023-03-23T02:01:38;10.90;99.90
42907;DHT22;28552;51.146;6.576;2023-03-23T02:04:43;10.90;99.90
42907;DHT22;28552;51.146;6.576;2023-03-23T02:07:44;10.90;99.90
42907;DHT22;28552;51.146;6.576;2023-03-23T02:10:45;10.90;99.90
42907;DHT22;28552;51.146;6.576;2023-03-23T02:13:46;10.90;99.90
42907;DHT22;28552;51.146;6.576;2023-03-23T02:16:51;10.90;99.90
42907;DHT22;28552;51.146;6.576;2023-03-23T02:23:20;10.80;99.90
42907;DHT22;28552;51.146;6.576;2023-03-23T02:26:29;10.80;99.90
42907;DHT22;28552;51.146;6.576;2023-03-23T02:32:38;10.90;99.90
42907;DHT22;28552;51.146;6.576;2023-03-23T02:35:52;10.90;99.90
42907;DHT22;28552;51.146;6.576;2023-03-23T02:41:57;10.90;99.90
42907;DHT22;28552;51.146;6.576;2023-03-23T02:44:58;10.90;99.90
42907;DHT22;28552;51.146;6.576;2023-03-23T02:48:00;11.00;99.90
42907;DHT22;28552;51.146;6.576;2023-03-23T02:51:02;10.90;99.90
42907;DHT22;28552;51.146;6.576;2023-03-23T02:54:03;11.00;99.90
42907;DHT22;28552;51.146;6.576;2023-03-23T02:57:04;11.00;99.90
42907;DHT22;28552;51.146;6.576;2023-03-23T03:00:06;11.10;99.90
42907;DHT22;28552;51.146;6.576;2023-03-23T03:03:12;11.10;99.90
42907;DHT22;28552;51.146;6.576;2023-03-23T03:06:18;11.10;99.90
42907;DHT22;28552;51.146;6.576;2023-03-23T03:15:41;11.20;99.90
42907;DHT22;28552;51.146;6.576;2023-03-23T03:18:47;11.30;99.90
42907;DHT22;28552;51.146;6.576;2023-03-23T03:21:51;11.30;99.90
42907;DHT22;28552;51.146;6.576;2023-03-23T03:24:53;11.30;99.90
42907;DHT22;28552;51.146;6.576;2023-03-23T03:27:56;11.30;99.90
42907;DHT22;28552;51.146;6.576;2023-03-23T03:30:58;11.40;99.90
42907;DHT22;28552;51.146;6.576;2023-03-23T03:34:00;11.40;99.90
42907;DHT22;28552;51.146;6.576;2023-03-23T03:37:03;11.40;99.90
42907;DHT22;28552;51.146;6.576;2023-03-23T03:40:06;11.40;99.90
42907;DHT22;28552;51.146;6.576;2023-03-23T03:43:11;11.40;99.90
42907;DHT22;28552;51.146;6.576;2023-03-23T03:46:12;11.50;99.90
42907;DHT22;28552;51.146;6.576;2023-03-23T03:49:12;11.50;99.90
42907;DHT22;28552;51.146;6.576;2023-03-23T03:52:13;11.50;99.90
42907;DHT22;28552;51.146;6.576;2023-03-23T03:55:14;11.50;99.90
42907;DHT22;28552;51.146;6.576;2023-03-23T03:58:17;11.50;99.90
42907;DHT22;28552;51.146;6.576;2023-03-23T04:01:18;11.50;99.90
42907;DHT22;28552;51.146;6.576;2023-03-23T04:04:19;11.60;99.90
42907;DHT22;28552;51.146;6.576;2023-03-23T04:07:19;11.50;99.90
42907;DHT22;28552;51.146;6.576;2023-03-23T04:10:21;11.60;99.90
42907;DHT22;28552;51.146;6.576;2023-03-23T04:13:22;11.60;99.90
42907;DHT22;28552;51.146;6.576;2023-03-23T04:16:23;11.60;99.90
42907;DHT22;28552;51.146;6.576;2023-03-23T04:19:23;11.60;99.90
42907;DHT22;28552;51.146;6.576;2023-03-23T04:22:23;11.60;99.90
42907;DHT22;28552;51.146;6.576;2023-03-23T04:25:30;11.60;99.90
42907;DHT22;28552;51.146;6.576;2023-03-23T04:28:33;11.60;99.90
42907;DHT22;28552;51.146;6.576;2023-03-23T04:31:34;11.60;99.90
42907;DHT22;28552;51.146;6.576;2023-03-23T04:34:34;11.60;99.90
42907;DHT22;28552;51.146;6.576;2023-03-23T04:37:35;11.60;99.90
42907;DHT22;28552;51.146;6.576;2023-03-23T04:40:37;11.70;99.90
42907;DHT22;28552;51.146;6.576;2023-03-23T04:43:38;11.70;99.90
42907;DHT22;28552;51.146;6.576;2023-03-23T04:46:41;11.70;99.90
42907;DHT22;28552;51.146;6.576;2023-03-23T04:49:45;11.70;99.90
42907;DHT22;28552;51.146;6.576;2023-03-23T04:52:46;11.70;99.90
42907;DHT22;28552;51.146;6.576;2023-03-23T04:55:47;11.80;99.90
42907;DHT22;28552;51.146;6.576;2023-03-23T04:58:48;11.80;99.90
42907;DHT22;28552;51.146;6.576;2023-03-23T05:01:48;11.80;99.90
42907;DHT22;28552;51.146;6.576;2023-03-23T05:04:49;11.80;99.90
42907;DHT22;28552;51.146;6.576;2023-03-23T05:07:49;11.80;99.90
42907;DHT22;28552;51.146;6.576;2023-03-23T05:10:51;11.80;99.90
42907;DHT22;28552;51.146;6.576;2023-03-23T05:13:52;11.80;99.90
42907;DHT22;28552;51.146;6.576;2023-03-23T05:16:53;11.80;99.90
42907;DHT22;28552;51.146;6.576;2023-03-23T05:19:54;11.80;99.90
42907;DHT22;28552;51.146;6.576;2023-03-23T05:22:56;11.80;99.90
42907;DHT22;28552;51.146;6.576;2023-03-23T05:25:57;11.80;99.90
42907;DHT22;28552;51.146;6.576;2023-03-23T05:29:00;11.80;99.90
42907;DHT22;28552;51.146;6.576;2023-03-23T05:32:03;11.80;99.90
42907;DHT22;28552;51.146;6.576;2023-03-23T05:35:05;11.80;99.90
42907;DHT22;28552;51.146;6.576;2023-03-23T05:38:05;11.80;99.90
42907;DHT22;28552;51.146;6.576;2023-03-23T05:41:06;11.80;99.90
42907;DHT22;28552;51.146;6.576;2023-03-23T05:44:07;11.70;99.90
42907;DHT22;28552;51.146;6.576;2023-03-23T05:47:08;11.70;99.90
42907;DHT22;28552;51.146;6.576;2023-03-23T05:50:09;11.70;99.90
42907;DHT22;28552;51.146;6.576;2023-03-23T05:53:10;11.70;99.90
42907;DHT22;28552;51.146;6.576;2023-03-23T05:56:11;11.70;99.90
42907;DHT22;28552;51.146;6.576;2023-03-23T05:59:12;11.70;99.90
42907;DHT22;28552;51.146;6.576;2023-03-23T06:02:13;11.60;99.90
42907;DHT22;28552;51.146;6.576;2023-03-23T06:05:15;11.70;99.90
42907;DHT22;28552;51.146;6.576;2023-03-23T06:08:16;11.70;99.90
42907;DHT22;28552;51.146;6.576;2023-03-23T06:11:17;11.70;99.90
42907;DHT22;28552;51.146;6.576;2023-03-23T06:14:18;11.70;99.90
42907;DHT22;28552;51.146;6.576;2023-03-23T06:17:19;11.80;99.90
42907;DHT22;28552;51.146;6.576;2023-03-23T06:20:19;11.80;99.90
42907;DHT22;28552;51.146;6.576;2023-03-23T06:23:20;11.90;99.90
42907;DHT22;28552;51.146;6.576;2023-03-23T06:26:28;11.90;99.90
42907;DHT22;28552;51.146;6.576;2023-03-23T06:29:28;11.90;99.90
42907;DHT22;28552;51.146;6.576;2023-03-23T06:32:29;12.00;99.90
42907;DHT22;28552;51.146;6.576;2023-03-23T06:35:31;12.10;99.90
42907;DHT22;28552;51.146;6.576;2023-03-23T06:38:32;12.10;99.90
42907;DHT22;28552;51.146;6.576;2023-03-23T06:41:33;12.10;99.90
42907;DHT22;28552;51.146;6.576;2023-03-23T06:44:34;12.20;99.90
42907;DHT22;28552;51.146;6.576;2023-03-23T06:47:34;12.20;99.90
42907;DHT22;28552;51.146;6.576;2023-03-23T06:50:35;12.20;99.90
42907;DHT22;28552;51.146;6.576;2023-03-23T06:53:35;12.30;99.90
42907;DHT22;28552;51.146;6.576;2023-03-23T06:56:36;12.30;99.90
42907;DHT22;28552;51.146;6.576;2023-03-23T06:59:36;12.30;99.90
42907;DHT22;28552;51.146;6.576;2023-03-23T07:02:37;12.40;99.90
42907;DHT22;28552;51.146;6.576;2023-03-23T07:05:37;12.40;99.90
42907;DHT22;28552;51.146;6.576;2023-03-23T07:08:38;12.40;99.90
42907;DHT22;28552;51.146;6.576;2023-03-23T07:11:38;12.40;99.90
42907;DHT22;28552;51.146;6.576;2023-03-23T07:14:39;12.50;99.90
42907;DHT22;28552;51.146;6.576;2023-03-23T07:17:39;12.50;99.90
42907;DHT22;28552;51.146;6.576;2023-03-23T07:20:40;12.60;99.90
42907;DHT22;28552;51.146;6.576;2023-03-23T07:23:41;12.70;99.90
42907;DHT22;28552;51.146;6.576;2023-03-23T07:26:41;12.70;99.90
42907;DHT22;28552;51.146;6.576;2023-03-23T07:29:42;12.70;99.90
42907;DHT22;28552;51.146;6.576;2023-03-23T07:32:42;12.70;99.90
42907;DHT22;28552;51.146;6.576;2023-03-23T07:35:43;12.80;99.90
42907;DHT22;28552;51.146;6.576;2023-03-23T07:38:43;12.80;99.90
42907;DHT22;28552;51.146;6.576;2023-03-23T07:41:44;12.80;99.90
42907;DHT22;28552;51.146;6.576;2023-03-23T07:44:44;12.90;99.90
42907;DHT22;28552;51.146;6.576;2023-03-23T07:47:45;12.90;99.90
42907;DHT22;28552;51.146;6.576;2023-03-23T07:50:46;13.00;99.90
42907;DHT22;28552;51.146;6.576;2023-03-23T07:53:47;13.10;99.90
42907;DHT22;28552;51.146;6.576;2023-03-23T07:56:47;13.10;99.90
42907;DHT22;28552;51.146;6.576;2023-03-23T07:59:48;13.20;99.90
42907;DHT22;28552;51.146;6.576;2023-03-23T08:02:49;13.20;99.90
42907;DHT22;28552;51.146;6.576;2023-03-23T08:05:50;13.20;99.90
42907;DHT22;28552;51.146;6.576;2023-03-23T08:08:51;13.20;99.90
42907;DHT22;28552;51.146;6.576;2023-03-23T08:11:52;13.30;99.90
42907;DHT22;28552;51.146;6.576;2023-03-23T08:14:53;13.30;99.90
42907;DHT22;28552;51.146;6.576;2023-03-23T08:17:54;13.40;99.90
42907;DHT22;28552;51.146;6.576;2023-03-23T08:20:54;13.40;99.90
42907;DHT22;28552;51.146;6.576;2023-03-23T08:23:55;13.40;99.90
42907;DHT22;28552;51.146;6.576;2023-03-23T08:26:56;13.50;99.90
42907;DHT22;28552;51.146;6.576;2023-03-23T08:29:56;13.50;99.90
42907;DHT22;28552;51.146;6.576;2023-03-23T08:32:57;13.50;99.90
42907;DHT22;28552;51.146;6.576;2023-03-23T08:35:58;13.60;99.90
42907;DHT22;28552;51.146;6.576;2023-03-23T08:38:59;13.60;99.90
42907;DHT22;28552;51.146;6.576;2023-03-23T08:42:00;13.70;99.90
42907;DHT22;28552;51.146;6.576;2023-03-23T08:45:00;13.70;99.90
42907;DHT22;28552;51.146;6.576;2023-03-23T08:48:01;13.90;99.90
42907;DHT22;28552;51.146;6.576;2023-03-23T08:51:02;14.00;99.90
42907;DHT22;28552;51.146;6.576;2023-03-23T08:54:02;14.00;99.90
42907;DHT22;28552;51.146;6.576;2023-03-23T08:57:03;14.10;99.90
42907;DHT22;28552;51.146;6.576;2023-03-23T09:00:04;14.00;99.90
42907;DHT22;28552;51.146;6.576;2023-03-23T09:03:16;14.10;99.90
42907;DHT22;28552;51.146;6.576;2023-03-23T09:06:17;14.10;99.90
42907;DHT22;28552;51.146;6.576;2023-03-23T09:09:18;14.20;99.90
42907;DHT22;28552;51.146;6.576;2023-03-23T09:12:18;14.20;99.90
42907;DHT22;28552;51.146;6.576;2023-03-23T09:15:19;14.30;99.90
42907;DHT22;28552;51.146;6.576;2023-03-23T09:18:20;14.30;99.90
42907;DHT22;28552;51.146;6.576;2023-03-23T09:21:20;14.20;99.90
42907;DHT22;28552;51.146;6.576;2023-03-23T09:24:22;14.10;99.90
42907;DHT22;28552;51.146;6.576;2023-03-23T09:27:22;14.00;99.90
42907;DHT22;28552;51.146;6.576;2023-03-23T09:30:24;13.90;99.90
42907;DHT22;28552;51.146;6.576;2023-03-23T09:33:26;13.80;99.90
42907;DHT22;28552;51.146;6.576;2023-03-23T09:36:29;13.70;99.90
42907;DHT22;28552;51.146;6.576;2023-03-23T09:39:32;13.70;99.90
42907;DHT22;28552;51.146;6.576;2023-03-23T09:42:43;13.80;99.90
42907;DHT22;28552;51.146;6.576;2023-03-23T09:49:04;13.90;99.90
42907;DHT22;28552;51.146;6.576;2023-03-23T09:52:09;13.90;99.90
42907;DHT22;28552;51.146;6.576;2023-03-23T09:55:12;13.90;99.90
42907;DHT22;28552;51.146;6.576;2023-03-23T10:01:32;12.90;99.90
42907;DHT22;28552;51.146;6.576;2023-03-23T10:04:36;12.20;99.90
42907;DHT22;28552;51.146;6.576;2023-03-23T10:07:38;11.50;99.90
42907;DHT22;28552;51.146;6.576;2023-03-23T10:10:42;11.10;99.90
42907;DHT22;28552;51.146;6.576;2023-03-23T10:17:00;10.70;99.90
42907;DHT22;28552;51.146;6.576;2023-03-23T10:26:28;10.40;99.90
42907;DHT22;28552;51.146;6.576;2023-03-23T10:29:30;10.30;99.90
42907;DHT22;28552;51.146;6.576;2023-03-23T10:35:59;10.30;99.90
42907;DHT22;28552;51.146;6.576;2023-03-23T10:39:06;10.20;99.90
42907;DHT22;28552;51.146;6.576;2023-03-23T10:42:09;10.20;99.90
42907;DHT22;28552;51.146;6.576;2023-03-23T10:45:12;10.20;99.90
42907;DHT22;28552;51.146;6.576;2023-03-23T10:48:17;10.20;99.90
42907;DHT22;28552;51.146;6.576;2023-03-23T10:51:19;10.00;99.90
42907;DHT22;28552;51.146;6.576;2023-03-23T10:54:26;10.00;99.90
42907;DHT22;28552;51.146;6.576;2023-03-23T10:57:28;10.10;99.90
42907;DHT22;28552;51.146;6.576;2023-03-23T11:00:29;10.10;99.90
42907;DHT22;28552;51.146;6.576;2023-03-23T11:06:50;10.20;99.90
42907;DHT22;28552;51.146;6.576;2023-03-23T11:09:53;10.20;99.90
42907;DHT22;28552;51.146;6.576;2023-03-23T11:12:57;10.10;99.90
42907;DHT22;28552;51.146;6.576;2023-03-23T11:15:58;10.10;99.90
42907;DHT22;28552;51.146;6.576;2023-03-23T11:19:00;10.10;99.90
42907;DHT22;28552;51.146;6.576;2023-03-23T11:25:05;10.30;99.90
42907;DHT22;28552;51.146;6.576;2023-03-23T11:28:07;10.30;99.90
42907;DHT22;28552;51.146;6.576;2023-03-23T11:31:08;10.30;99.90
42907;DHT22;28552;51.146;6.576;2023-03-23T11:37:13;10.90;99.90
42907;DHT22;28552;51.146;6.576;2023-03-23T11:40:17;11.20;99.90
42907;DHT22;28552;51.146;6.576;2023-03-23T11:43:19;11.40;99.90
42907;DHT22;28552;51.146;6.576;2023-03-23T11:46:30;11.40;99.90
42907;DHT22;28552;51.146;6.576;2023-03-23T11:49:38;11.30;99.90
42907;DHT22;28552;51.146;6.576;2023-03-23T11:52:43;11.10;99.90
42907;DHT22;28552;51.146;6.576;2023-03-23T11:58:45;11.40;99.90
42907;DHT22;28552;51.146;6.576;2023-03-23T12:05:11;12.00;99.90
42907;DHT22;28552;51.146;6.576;2023-03-23T12:08:20;12.20;99.90
42907;DHT22;28552;51.146;6.576;2023-03-23T12:14:32;12.60;99.90
42907;DHT22;28552;51.146;6.576;2023-03-23T12:17:39;12.60;99.90
42907;DHT22;28552;51.146;6.576;2023-03-23T12:23:49;12.60;99.90
42907;DHT22;28552;51.146;6.576;2023-03-23T12:33:29;11.90;99.90
42907;DHT22;28552;51.146;6.576;2023-03-23T12:36:37;12.00;99.90
42907;DHT22;28552;51.146;6.576;2023-03-23T12:39:57;12.00;99.90
42907;DHT22;28552;51.146;6.576;2023-03-23T12:49:35;12.50;99.90
42907;DHT22;28552;51.146;6.576;2023-03-23T12:52:47;12.50;99.90
42907;DHT22;28552;51.146;6.576;2023-03-23T12:55:52;12.40;99.90
42907;DHT22;28552;51.146;6.576;2023-03-23T12:58:58;12.40;99.90
42907;DHT22;28552;51.146;6.576;2023-03-23T13:02:02;12.40;99.90
42907;DHT22;28552;51.146;6.576;2023-03-23T13:05:09;12.30;99.90
42907;DHT22;28552;51.146;6.576;2023-03-23T13:08:16;12.20;99.90
42907;DHT22;28552;51.146;6.576;2023-03-23T13:11:21;12.10;99.90
42907;DHT22;28552;51.146;6.576;2023-03-23T13:21:11;12.20;99.90
42907;DHT22;28552;51.146;6.576;2023-03-23T13:24:15;12.00;99.90
42907;DHT22;28552;51.146;6.576;2023-03-23T13:27:22;12.00;99.90
42907;DHT22;28552;51.146;6.576;2023-03-23T13:30:22;11.90;99.90
42907;DHT22;28552;51.146;6.576;2023-03-23T13:33:24;11.90;99.90
42907;DHT22;28552;51.146;6.576;2023-03-23T13:36:27;11.90;99.90
42907;DHT22;28552;51.146;6.576;2023-03-23T13:39:29;11.90;99.90
42907;DHT22;28552;51.146;6.576;2023-03-23T13:42:30;12.00;99.90
42907;DHT22;28552;51.146;6.576;2023-03-23T13:45:36;12.00;99.90
42907;DHT22;28552;51.146;6.576;2023-03-23T13:48:40;12.20;99.90
42907;DHT22;28552;51.146;6.576;2023-03-23T13:54:43;12.40;99.90
42907;DHT22;28552;51.146;6.576;2023-03-23T13:57:52;12.60;99.90
42907;DHT22;28552;51.146;6.576;2023-03-23T14:04:14;12.90;99.90
42907;DHT22;28552;51.146;6.576;2023-03-23T14:07:15;12.90;99.90
42907;DHT22;28552;51.146;6.576;2023-03-23T14:10:16;13.10;99.90
42907;DHT22;28552;51.146;6.576;2023-03-23T14:13:19;13.10;99.90
42907;DHT22;28552;51.146;6.576;2023-03-23T14:16:21;13.00;99.90
42907;DHT22;28552;51.146;6.576;2023-03-23T14:25:26;13.00;99.90
42907;DHT22;28552;51.146;6.576;2023-03-23T14:28:27;13.20;99.90
42907;DHT22;28552;51.146;6.576;2023-03-23T14:31:28;13.20;99.90
42907;DHT22;28552;51.146;6.576;2023-03-23T14:34:29;13.30;99.90
42907;DHT22;28552;51.146;6.576;2023-03-23T14:37:31;13.30;99.90
42907;DHT22;28552;51.146;6.576;2023-03-23T14:40:31;13.40;99.90
42907;DHT22;28552;51.146;6.576;2023-03-23T14:43:34;13.40;99.90
42907;DHT22;28552;51.146;6.576;2023-03-23T14:46:35;13.30;99.90
42907;DHT22;28552;51.146;6.576;2023-03-23T14:49:36;13.20;99.90
42907;DHT22;28552;51.146;6.576;2023-03-23T14:52:38;13.00;99.90
42907;DHT22;28552;51.146;6.576;2023-03-23T14:55:41;12.90;99.90
42907;DHT22;28552;51.146;6.576;2023-03-23T14:58:43;12.90;99.90
42907;DHT22;28552;51.146;6.576;2023-03-23T15:01:45;12.90;99.90
42907;DHT22;28552;51.146;6.576;2023-03-23T15:04:47;13.00;99.90
42907;DHT22;28552;51.146;6.576;2023-03-23T15:07:50;13.00;99.90
42907;DHT22;28552;51.146;6.576;2023-03-23T15:10:52;13.00;99.90
42907;DHT22;28552;51.146;6.576;2023-03-23T15:13:55;13.00;99.90
42907;DHT22;28552;51.146;6.576;2023-03-23T15:16:58;13.10;99.90
42907;DHT22;28552;51.146;6.576;2023-03-23T15:20:06;13.10;99.90
42907;DHT22;28552;51.146;6.576;2023-03-23T15:23:07;13.20;99.90
42907;DHT22;28552;51.146;6.576;2023-03-23T15:26:15;13.30;99.90
42907;DHT22;28552;51.146;6.576;2023-03-23T15:29:18;13.40;99.90
42907;DHT22;28552;51.146;6.576;2023-03-23T15:32:22;13.50;99.90
42907;DHT22;28552;51.146;6.576;2023-03-23T15:35:23;13.60;99.90
42907;DHT22;28552;51.146;6.576;2023-03-23T15:38:28;13.60;99.90
42907;DHT22;28552;51.146;6.576;2023-03-23T15:41:30;13.70;99.90
42907;DHT22;28552;51.146;6.576;2023-03-23T15:44:33;13.80;99.90
42907;DHT22;28552;51.146;6.576;2023-03-23T15:47:35;13.80;99.90
42907;DHT22;28552;51.146;6.576;2023-03-23T15:50:36;13.90;99.90
42907;DHT22;28552;51.146;6.576;2023-03-23T15:53:37;13.90;99.90
42907;DHT22;28552;51.146;6.576;2023-03-23T15:56:39;14.00;99.90
42907;DHT22;28552;51.146;6.576;2023-03-23T15:59:39;14.00;99.90
42907;DHT22;28552;51.146;6.576;2023-03-23T16:02:40;14.00;99.90
42907;DHT22;28552;51.146;6.576;2023-03-23T16:05:40;14.10;99.90
42907;DHT22;28552;51.146;6.576;2023-03-23T16:08:41;14.10;99.90
42907;DHT22;28552;51.146;6.576;2023-03-23T16:11:41;14.00;99.90
42907;DHT22;28552;51.146;6.576;2023-03-23T16:14:42;14.10;99.90
42907;DHT22;28552;51.146;6.576;2023-03-23T16:17:42;14.10;99.90
42907;DHT22;28552;51.146;6.576;2023-03-23T16:20:43;14.20;99.90
42907;DHT22;28552;51.146;6.576;2023-03-23T16:23:44;14.20;99.90
42907;DHT22;28552;51.146;6.576;2023-03-23T16:26:45;14.20;99.90
42907;DHT22;28552;51.146;6.576;2023-03-23T16:29:46;14.20;99.90
42907;DHT22;28552;51.146;6.576;2023-03-23T16:32:46;14.10;99.90
42907;DHT22;28552;51.146;6.576;2023-03-23T16:35:47;14.10;99.90
42907;DHT22;28552;51.146;6.576;2023-03-23T16:38:47;14.00;99.90
42907;DHT22;28552;51.146;6.576;2023-03-23T16:41:48;13.90;99.90
42907;DHT22;28552;51.146;6.576;2023-03-23T16:44:48;14.00;99.90
42907;DHT22;28552;51.146;6.576;2023-03-23T16:47:50;14.00;99.90
42907;DHT22;28552;51.146;6.576;2023-03-23T16:50:50;14.00;99.90
42907;DHT22;28552;51.146;6.576;2023-03-23T16:53:51;14.00;99.90
42907;DHT22;28552;51.146;6.576;2023-03-23T16:56:52;14.00;99.90
42907;DHT22;28552;51.146;6.576;2023-03-23T16:59:52;14.00;99.90
42907;DHT22;28552;51.146;6.576;2023-03-23T17:02:53;14.10;99.90
42907;DHT22;28552;51.146;6.576;2023-03-23T17:05:58;14.10;99.90
42907;DHT22;28552;51.146;6.576;2023-03-23T17:08:58;14.10;99.90
42907;DHT22;28552;51.146;6.576;2023-03-23T17:11:59;14.10;99.90
42907;DHT22;28552;51.146;6.576;2023-03-23T17:14:59;14.10;99.90
42907;DHT22;28552;51.146;6.576;2023-03-23T17:18:00;14.20;99.90
42907;DHT22;28552;51.146;6.576;2023-03-23T17:21:01;14.20;99.90
42907;DHT22;28552;51.146;6.576;2023-03-23T17:24:01;14.10;99.90
42907;DHT22;28552;51.146;6.576;2023-03-23T17:27:01;14.10;99.90
42907;DHT22;28552;51.146;6.576;2023-03-23T17:30:04;14.00;99.90
42907;DHT22;28552;51.146;6.576;2023-03-23T17:33:05;13.80;99.90
42907;DHT22;28552;51.146;6.576;2023-03-23T17:36:05;13.60;99.90
42907;DHT22;28552;51.146;6.576;2023-03-23T17:39:06;13.50;99.90
42907;DHT22;28552;51.146;6.576;2023-03-23T17:42:06;13.40;99.90
42907;DHT22;28552;51.146;6.576;2023-03-23T17:45:07;13.30;99.90
42907;DHT22;28552;51.146;6.576;2023-03-23T17:48:08;13.20;99.90
42907;DHT22;28552;51.146;6.576;2023-03-23T17:51:08;13.00;99.90
42907;DHT22;28552;51.146;6.576;2023-03-23T17:54:09;12.90;99.90
42907;DHT22;28552;51.146;6.576;2023-03-23T17:57:09;12.70;99.90
42907;DHT22;28552;51.146;6.576;2023-03-23T18:00:10;12.70;99.90
42907;DHT22;28552;51.146;6.576;2023-03-23T18:03:11;12.60;99.90
42907;DHT22;28552;51.146;6.576;2023-03-23T18:06:11;12.50;99.90
42907;DHT22;28552;51.146;6.576;2023-03-23T18:09:12;12.50;99.90
42907;DHT22;28552;51.146;6.576;2023-03-23T18:12:13;12.60;99.90
42907;DHT22;28552;51.146;6.576;2023-03-23T18:15:14;12.60;99.90
42907;DHT22;28552;51.146;6.576;2023-03-23T18:18:14;12.60;99.90
42907;DHT22;28552;51.146;6.576;2023-03-23T18:21:15;12.70;99.90
42907;DHT22;28552;51.146;6.576;2023-03-23T18:24:15;12.70;99.90
42907;DHT22;28552;51.146;6.576;2023-03-23T18:27:16;12.70;99.90
42907;DHT22;28552;51.146;6.576;2023-03-23T18:30:16;12.70;99.90
42907;DHT22;28552;51.146;6.576;2023-03-23T18:33:18;12.60;99.90
42907;DHT22;28552;51.146;6.576;2023-03-23T18:36:21;12.50;99.90
42907;DHT22;28552;51.146;6.576;2023-03-23T18:39:24;12.50;99.90
42907;DHT22;28552;51.146;6.576;2023-03-23T18:42:25;12.50;99.90
42907;DHT22;28552;51.146;6.576;2023-03-23T18:45:26;12.50;99.90
42907;DHT22;28552;51.146;6.576;2023-03-23T18:48:27;12.40;99.90
42907;DHT22;28552;51.146;6.576;2023-03-23T18:51:27;12.30;99.90
42907;DHT22;28552;51.146;6.576;2023-03-23T18:54:30;12.20;99.90
42907;DHT22;28552;51.146;6.576;2023-03-23T18:57:34;12.10;99.90
42907;DHT22;28552;51.146;6.576;2023-03-23T19:00:34;12.00;99.90
42907;DHT22;28552;51.146;6.576;2023-03-23T19:03:36;11.90;99.90
42907;DHT22;28552;51.146;6.576;2023-03-23T19:06:37;11.90;99.90
42907;DHT22;28552;51.146;6.576;2023-03-23T19:09:39;11.90;99.90
42907;DHT22;28552;51.146;6.576;2023-03-23T19:12:41;11.90;99.90
42907;DHT22;28552;51.146;6.576;2023-03-23T19:15:41;11.90;99.90
42907;DHT22;28552;51.146;6.576;2023-03-23T19:18:42;12.00;99.90
42907;DHT22;28552;51.146;6.576;2023-03-23T19:21:42;12.00;99.90
42907;DHT22;28552;51.146;6.576;2023-03-23T19:24:43;12.00;99.90
42907;DHT22;28552;51.146;6.576;2023-03-23T19:27:43;12.00;99.90
42907;DHT22;28552;51.146;6.576;2023-03-23T19:30:45;12.00;99.90
42907;DHT22;28552;51.146;6.576;2023-03-23T19:33:46;12.00;99.90
42907;DHT22;28552;51.146;6.576;2023-03-23T19:36:46;12.10;99.90
42907;DHT22;28552;51.146;6.576;2023-03-23T19:39:47;12.20;99.90
42907;DHT22;28552;51.146;6.576;2023-03-23T19:42:47;12.30;99.90
42907;DHT22;28552;51.146;6.576;2023-03-23T19:45:48;12.40;99.90
42907;DHT22;28552;51.146;6.576;2023-03-23T19:48:54;12.40;99.90
42907;DHT22;28552;51.146;6.576;2023-03-23T19:51:55;12.50;99.90
42907;DHT22;28552;51.146;6.576;2023-03-23T19:54:56;12.60;99.90
42907;DHT22;28552;51.146;6.576;2023-03-23T19:57:56;12.60;99.90
42907;DHT22;28552;51.146;6.576;2023-03-23T20:00:59;12.70;99.90
42907;DHT22;28552;51.146;6.576;2023-03-23T20:03:59;12.70;99.90
42907;DHT22;28552;51.146;6.576;2023-03-23T20:07:04;12.70;99.90
42907;DHT22;28552;51.146;6.576;2023-03-23T20:10:05;12.70;99.90
42907;DHT22;28552;51.146;6.576;2023-03-23T20:13:09;12.80;99.90
42907;DHT22;28552;51.146;6.576;2023-03-23T20:16:09;12.80;99.90
42907;DHT22;28552;51.146;6.576;2023-03-23T20:19:11;12.90;99.90
42907;DHT22;28552;51.146;6.576;2023-03-23T20:22:11;13.00;99.90
42907;DHT22;28552;51.146;6.576;2023-03-23T20:25:13;13.00;99.90
42907;DHT22;28552;51.146;6.576;2023-03-23T20:28:13;13.00;99.90
42907;DHT22;28552;51.146;6.576;2023-03-23T20:31:16;13.00;99.90
42907;DHT22;28552;51.146;6.576;2023-03-23T20:34:17;13.00;99.90
42907;DHT22;28552;51.146;6.576;2023-03-23T20:37:28;13.00;99.90